AirNav   Air Wisconsin pilot careers
 
 1482 users online  

KLVK Livermore Municipal Airport
Livermore, California, USA

GOING TO LIVERMORE?


FAA INFORMATION EFFECTIVE 08 NOVEMBER 2018

Location

FAA Identifier: LVK
Lat/Long: 37-41-36.2000N / 121-49-13.3000W
37-41.603333N / 121-49.221667W
37.6933889 / -121.8203611
(estimated)
Elevation: 399.9 ft. / 121.9 m (surveyed)
Variation: 16E (1980)
From city: 3 miles W of LIVERMORE, CA
Time zone: UTC -8 (UTC -7 during Daylight Saving Time)
Zip code: 94550

Airport Operations

Airport use: Open to the public
Activation date: 12/1965
Control tower: yes
ARTCC: OAKLAND CENTER
FSS: OAKLAND FLIGHT SERVICE STATION
NOTAMs facility: LVK (NOTAM-D service available)
Attendance: SAT-SUN 0700-1100, ALL MON-FRI 0730-1700
Wind indicator: lighted
Segmented circle: yes
Lights: ATC CNTL. WHEN ATCT CLSD, ACTVT MALSR RWY 25R; TWY LGTS - 118.1. HIRL RWY 07L/25R OPER LOW INTST; TO INCREASE INTST ACTVT 118.1. MIRL RWY 07R/25L OPER LOW INTST; NOT AVBL WHEN ATCT CLSD. PAPI RWY 07L AND VASI RWY 25R OPR CONSLY.
Beacon: white-green (lighted land airport)
Operates sunset to sunrise.

Airport Communications

CTAF: 118.1
UNICOM: 122.95
ATIS: 119.65
WX ASOS: PHONE 925-606-5412
LIVERMORE GROUND: 121.6 [0700-2100]
LIVERMORE TOWER: 118.1 239.25 [0700-2100]
NORCAL APPROACH: 123.85 RY 07R/25L & RY 07L/25R
NORCAL DEPARTURE: 123.85 RY 07R RY 07L 125.35 RY 25L RY 25R
AS ASSIGNED: 128.2
WX AWOS-3 at C83 (12 nm NE): 123.775 (925-634-0906)
WX ASOS at HWD (14 nm W): PHONE 510-786-3052
WX AWOS-3 at TCY (18 nm E): 118.375 (209-831-4335)
WX ASOS at OAK (19 nm W): PHONE 510-214-1776
WX ASOS at NUQ (20 nm SW): 124.175 (650-604-1529)
  • FREQ 121.5 NOT AVAILABLE.

Nearby radio navigation aids

VOR radial/distance  VOR name  Freq  Var
OAKr079/19.2OAKLAND VOR/DME116.8017E
SJCr001/20.0SAN JOSE VOR/DME114.1016E
CCRr136/23.6CONCORD VOR/DME117.0017E
SFOr063/26.7SAN FRANCISCO VOR/DME115.8017E
OSIr034/28.4WOODSIDE VOR/DME113.9017E
SAUr089/34.7SAUSALITO VOR/DME116.2017E
SGDr121/39.2SCAGGS ISLAND VORTAC112.1017E

 
NDB name  Hdg/Dist  Freq  Var  ID
TRACY255/17.820315ETCY - -.-. -.--

Airport Services

Fuel available: 100LL JET-A
Parking: tiedowns
Airframe service: MAJOR
Powerplant service: MAJOR
Bottled oxygen: HIGH
Bulk oxygen: HIGH

Runway Information

Runway 7L/25R

Dimensions: 5253 x 100 ft. / 1601 x 30 m
Surface: asphalt, in excellent condition
Weight bearing capacity: 
Single wheel: 45.0
Double wheel: 90.0
Runway edge lights: high intensity
RUNWAY 7L  RUNWAY 25R
Latitude: 37-41.636222N37-41.627625N
Longitude: 121-49.764095W121-48.675008W
Elevation: 372.9 ft.399.9 ft.
Traffic pattern: leftright
Runway heading: 074 magnetic, 090 true254 magnetic, 270 true
Markings: precision, in fair conditionprecision, in fair condition
Visual slope indicator: 4-light PAPI on right (4.00 degrees glide path)4-box VASI on left (3.00 degrees glide path)
Approach lights: MALSR: 1,400 foot medium intensity approach lighting system with runway alignment indicator lights
Touchdown point: yes, no lightsyes, no lights
Instrument approach: ILS/DME
Obstructions: 75 ft. tree, 2016 ft. from runway, 350 ft. left of centerline, 24:1 slope to clear
+6 FT FENCE 180 FT FM RY END 400 FT LEFT OF EXTDD CNTRLN.
24 ft. bldg, 638 ft. from runway, 560 ft. right of centerline, 18:1 slope to clear

Runway 7R/25L

Dimensions: 2699 x 75 ft. / 823 x 23 m
Surface: asphalt, in excellent condition
Weight bearing capacity: 
Single wheel: 12.5
Runway edge lights: medium intensity
RUNWAY 7R  RUNWAY 25L
Latitude: 37-41.551892N37-41.547342N
Longitude: 121-49.505328W121-48.945675W
Elevation: 378.8 ft.394.6 ft.
Traffic pattern: rightleft
Runway heading: 074 magnetic, 090 true254 magnetic, 270 true
Markings: basic, in good conditionbasic, in good condition
Touchdown point: yes, no lightsyes, no lights

Helipad H1

Dimensions: 24 x 22 ft. / 7 x 7 m
Surface: asphalt, in good condition
Latitude: 37-41.435500N
Longitude: 121-49.402000W
Elevation: 382.0 ft.
Traffic pattern: leftleft

Airport Ownership and Management from official FAA records

Ownership: Publicly-owned
Owner: CITY OF LIVERMORE
1052 SOUTH LIVERMORE AVE
LIVERMORE, CA 94550
Phone 925-960-4200
Manager: DAVID DECOTEAU
680 TERMINAL CIRCLE
LIVERMORE, CA 94551
Phone (925) 960-8220

Airport Operational Statistics

Aircraft based on the field: 461
Single engine airplanes: 417
Multi engine airplanes: 33
Jet airplanes: 6
Helicopters: 5
    
Aircraft operations: avg 406/day *
58% local general aviation
40% transient general aviation
1% air taxi
<1% military
<1% commercial
* for 12-month period ending 01 May 2018

Additional Remarks

BE ALERT TO CONSIDERABLE BIRD ACTIVITY ON & IN VICINITY OF ARPT.
DO NOT MISTAKE PARALLEL TAXIWAY N OF RWY 25R/7L AS RWY. NOISE SENSITIVE AREAS 3/4 MILE EAST & 2 MILES W OF ARPT.
EFFECTIVE RY GRADIENT RY 07L 0.52% UP; RY 07R 0.59% UP.
FOR CD WHEN ATCT IS CLSD CTC NORCAL APCH AT 916-361-0516.

Instrument Procedures

NOTE: All procedures below are presented as PDF files. If you need a reader for these files, you should download the free Adobe Reader.

NOT FOR NAVIGATION. Please procure official charts for flight.
FAA instrument procedures published for use from 8 November 2018 at 0901Z to 6 December 2018 at 0900Z.

 
IAPs - Instrument Approach Procedures
ILS RWY 25R   download (220KB)
RNAV (GPS) RWY 25R   download (253KB)
LOC RWY 25R   download (253KB)
NOTE: Special Alternate Minimums apply   download (49KB)
 
LIVERMORE THREE (OBSTACLE)   2 pages: [1] [2] (566KB)
NOTE: Special Take-Off Minimums/Departure Procedures apply   download (227KB)

Other nearby airports with instrument procedures:

C83 - Byron Airport (12 nm NE)
KHWD - Hayward Executive Airport (14 nm W)
KTCY - Tracy Municipal Airport (18 nm E)
KOAK - Metropolitan Oakland International Airport (19 nm W)
KPAO - Palo Alto Airport (20 nm SW)
KNUQ - Moffett Federal Airfield (20 nm SW)
 
Loc | Ops | Rwys | IFR | FBO | Links
Com | Nav | Svcs | Stats | Notes

Watsonville Municipal Airport
 
Area around KLVK (Livermore Municipal Airport)
 
Road maps at: MapQuest Bing Google
 
Aerial photo
WARNING: Photo may not be current or correct
Aerial photo of KLVK (Livermore Municipal Airport)
Photo by Thomas Goetze
Photo taken 14-Jul-2018
looking north.

Do you have a better or more recent aerial photo of Livermore Municipal Airport that you would like to share? If so, please send us your photo.

 
Sectional chart

 
Airport diagram
CAUTION: Diagram may not be current
Diagram of KLVK (Livermore Municipal Airport)
Download PDF
of official airport diagram from the FAA

 
Airport distance calculator
Flying to Livermore Municipal Airport? Find the distance to fly.

From to KLVK

Sunrise and sunset
Times for 19-Nov-2018
 Local
(UTC-8)
 Zulu
(UTC)
Morning civil twilight06:2514:25
Sunrise06:5314:53
Sunset16:5300:53
Evening civil twilight17:2101:21

Current date and time
Zulu (UTC)  19-Nov-2018 18:28:50
Local (UTC-8)  19-Nov-2018 10:28:50
 
METAR
KLVK 191753Z 24004KT 1 3/4SM HZ FU CLR 11/03 A3008 RMK AO2 SLP186 T01060028 10111 20022 51007
KC83 
12nm NE 
191815Z AUTO 00000KT 3SM HZ CLR 15/M00 A3010 RMK AO2
KHWD 
14nm W 
191754Z 00000KT 2SM HZ FU CLR 13/05 A3007 RMK AO2 SLP191 T01280050 10128 20067 51007
KTCY 
18nm E 
191815Z AUTO 33006KT 3SM HZ CLR 13/01 A3009 RMK A01
KOAK 
19nm W 
191753Z 16006KT 2SM HZ FU FEW017 BKN200 13/08 A3007 RMK AO2 TWR VIS 3 SLP184 FU FEW017 T01280083 10128 20028 51008
KNUQ 
19nm SW 
191756Z 00000KT 2 1/2SM FU CLR 12/08 A3008 RMK AO2 SLP188 T01220078 10122 20056 51008
KPAO 
20nm SW 
191747Z 00000KT 2 1/2SM FU FEW120 12/07 A3008
TAF
KLVK 191733Z 1918/2018 VRB03KT 1 1/2SM FU HZ BKN200 FM191900 06006KT 2SM FU HZ BKN200 FM200300 00000KT 3SM FU HZ BKN200 FM201000 VRB03KT 2SM FU HZ FEW012 SCT250
KOAK 
19nm W 
191733Z 1918/2024 VRB03KT 2SM FU HZ BKN020 BKN200 FM191900 28006KT 3SM FU HZ FEW015 BKN200 FM200300 VRB03KT 4SM FU HZ FEW013 SCT200 FM201200 09003KT 3SM FU HZ SCT011 SCT200 FM201700 VRB03KT 3SM FU HZ SCT013 SCT200 FM202200 29006KT 4SM FU HZ FEW015 SCT250
NOTAMs
Click for the latest NOTAMs
NOTAMs are issued by the DoD/FAA and will open in a separate window not controlled by AirNav.

 

 
 

FBO, Fuel Providers, and Aircraft Ground Support

  
 Business Name 
 
 Contact 
 
 Services / Description 
 
Fuel Prices
 
Comments
  
 Five Rivers Aviation
925-315-4130
[web site]
[email]
Aviation fuel, Aircraft ground handling, Aircraft parking (ramp or tiedown), Hangars, Hangar leasing / sales, GPU / Power cart, ...

More info about Five Rivers Aviation
EPIC
100LL Jet A
FS $5.99 $5.14 
SS $4.99 --- 
 Updated 07-Nov-2018
 
   write
FS=Full service
SS=Self service
Update Fuel Prices
 

Aviation Businesses, Services, and Facilities

  
 Business Name 
 
 Contact 
 
 Services / Description 
 
Distance
 
Comments
  
Airline Transport Professionals - ATP Flight School toll-free 1-800-255-2877
[web site]
[email]
ATP provides professional, accelerated, airline-oriented flight training at 42 flight schools nationwide. ATP's Airline Career Pilot Program prepares pilots for airline careers from zero time to 1,500 hours, with CFI jobs and airline employment. Fly with the nation's largest flight school and gain access to more aircraft, locations, and job placements than any flight school, academy, or aviation university can offer.
More info and photos of Airline Transport Professionals - ATP Flight School
on airport  
   1 read write
Maintenance Express 925-455-5802
no information available

If you are affiliated with Maintenance Express and would like to show here your services, contact info, web link, logo, and more, click here
on airport  
   1 read write
 

Would you like to see your business listed on this page?

 If your business provides an interesting product or service to pilots, flight crews, aircraft, or users of the Livermore Municipal Airport, you should consider listing it here.  To start the listing process, click on the button below
 
Add a business
 

Other Pages about Livermore Municipal Airport

www.cityoflivermore.net/...
lvk1200.info
 
Update a link
 
Copyright © AirNav, LLC. All rights reserved. Privacy Policy  Contact